createdAt,value
2022-09-30T00:00:15.134Z,12.25
2022-09-30T00:02:50.568Z,12.23
2022-09-30T00:05:24.358Z,12.22
2022-09-30T00:07:58.168Z,12.29
2022-09-30T00:10:31.946Z,12.32
2022-09-30T00:13:05.609Z,12.35
2022-09-30T00:15:39.221Z,12.34
2022-09-30T00:18:14.858Z,12.28
2022-09-30T00:20:48.425Z,12.15
2022-09-30T00:23:22.362Z,12.09
2022-09-30T00:26:00.375Z,11.87
2022-09-30T00:28:34.667Z,11.73
2022-09-30T00:31:10.718Z,11.64
2022-09-30T00:34:06.872Z,11.82
2022-09-30T00:36:45.466Z,11.94
2022-09-30T00:39:21.298Z,11.95
2022-09-30T00:41:59.299Z,11.95
2022-09-30T00:44:55.505Z,11.77
2022-09-30T00:47:47.363Z,11.63
2022-09-30T00:50:28.167Z,11.81
2022-09-30T00:53:09.940Z,11.88
2022-09-30T00:55:50.535Z,11.89
2022-09-30T00:58:30.625Z,11.87
2022-09-30T01:01:05.134Z,11.88
2022-09-30T01:03:42.920Z,11.91
2022-09-30T01:06:17.238Z,11.86
2022-09-30T01:08:51.199Z,11.84
2022-09-30T01:11:25.130Z,11.81
2022-09-30T01:14:03.387Z,11.75
2022-09-30T01:16:52.692Z,11.64
2022-09-30T01:20:08.024Z,11.54
2022-09-30T01:22:57.137Z,11.44
2022-09-30T01:25:56.885Z,11.47
2022-09-30T01:29:26.787Z,11.41
2022-09-30T01:32:13.266Z,11.36
2022-09-30T01:34:56.267Z,11.01
2022-09-30T01:37:41.069Z,11.15
2022-09-30T01:40:26.197Z,11.04
2022-09-30T01:43:10.152Z,11.12
2022-09-30T01:45:50.673Z,11.21
2022-09-30T01:48:31.429Z,11.30
2022-09-30T01:51:10.071Z,10.93
2022-09-30T01:53:48.236Z,11.22
2022-09-30T01:56:29.729Z,11.09
2022-09-30T01:59:08.262Z,11.18
2022-09-30T02:01:49.392Z,11.19
2022-09-30T02:04:29.992Z,11.20
2022-09-30T02:07:09.573Z,11.15
2022-09-30T02:09:49.905Z,11.16
2022-09-30T02:12:28.310Z,11.14
2022-09-30T02:15:07.971Z,11.05
2022-09-30T02:17:48.458Z,10.99
2022-09-30T02:20:28.243Z,10.85
2022-09-30T02:23:09.182Z,10.88
2022-09-30T02:25:46.980Z,10.96
2022-09-30T02:28:27.627Z,11.03
2022-09-30T02:31:05.678Z,11.02
2022-09-30T02:33:45.068Z,11.06
2022-09-30T02:36:25.963Z,11.07
2022-09-30T02:39:04.802Z,11.02
2022-09-30T02:41:45.562Z,11.02
2022-09-30T02:44:20.240Z,10.99
2022-09-30T02:47:04.263Z,11.05
2022-09-30T02:49:43.405Z,10.83
2022-09-30T02:52:27.801Z,10.88
2022-09-30T02:55:16.653Z,10.75
2022-09-30T02:57:59.809Z,10.62
2022-09-30T03:00:34.048Z,10.76
2022-09-30T03:03:12.886Z,10.78
2022-09-30T03:05:46.540Z,10.89
2022-09-30T03:08:20.755Z,11.00
2022-09-30T03:10:54.921Z,11.05
2022-09-30T03:14:09.357Z,10.98
2022-09-30T03:17:10.548Z,10.67
2022-09-30T03:20:01.377Z,10.92
2022-09-30T03:23:03.472Z,11.16
2022-09-30T03:25:47.997Z,11.13
2022-09-30T03:28:28.070Z,11.48
2022-09-30T03:31:10.796Z,11.55
2022-09-30T03:33:53.396Z,11.89
2022-09-30T03:36:33.621Z,11.97
2022-09-30T03:39:19.568Z,12.13
2022-09-30T03:42:00.641Z,12.24
2022-09-30T03:44:43.120Z,12.30
2022-09-30T03:47:20.873Z,12.48
2022-09-30T03:50:00.952Z,12.54
2022-09-30T03:52:35.452Z,12.47
2022-09-30T03:55:12.501Z,12.48
2022-09-30T03:57:49.490Z,12.47
2022-09-30T04:00:23.496Z,12.57
2022-09-30T04:02:58.004Z,12.61
2022-09-30T04:05:32.469Z,12.73
2022-09-30T04:08:06.372Z,12.84
2022-09-30T04:10:41.768Z,12.91
2022-09-30T04:13:15.926Z,12.96
2022-09-30T04:15:56.020Z,13.02
2022-09-30T04:18:30.700Z,13.07
2022-09-30T04:21:08.098Z,13.01
2022-09-30T04:23:43.602Z,13.02
2022-09-30T04:26:19.862Z,13.14
2022-09-30T04:28:58.919Z,13.22
2022-09-30T04:31:31.888Z,13.20
2022-09-30T04:34:04.775Z,13.23
2022-09-30T04:36:38.798Z,13.39
2022-09-30T04:39:12.514Z,13.40
2022-09-30T04:41:46.865Z,13.43
2022-09-30T04:44:22.954Z,13.46
2022-09-30T04:46:56.815Z,13.58
2022-09-30T04:49:30.685Z,13.59
2022-09-30T04:52:04.529Z,13.56
2022-09-30T04:54:37.348Z,13.55
2022-09-30T04:57:11.277Z,13.60
2022-09-30T04:59:45.730Z,13.61
2022-09-30T05:02:18.634Z,13.63
2022-09-30T05:04:52.325Z,13.63
2022-09-30T05:07:25.149Z,13.67
2022-09-30T05:09:59.407Z,13.61
2022-09-30T05:12:33.446Z,13.59
2022-09-30T05:15:10.192Z,13.56
2022-09-30T05:17:43.795Z,13.55
2022-09-30T05:20:21.061Z,13.49
2022-09-30T05:22:56.780Z,13.58
2022-09-30T05:25:30.436Z,13.65
2022-09-30T05:28:04.758Z,13.63
2022-09-30T05:30:40.126Z,13.62
2022-09-30T05:33:15.172Z,13.58
2022-09-30T05:35:49.042Z,13.40
2022-09-30T05:38:21.893Z,13.61
2022-09-30T05:40:54.914Z,13.64
2022-09-30T05:43:28.736Z,13.70
2022-09-30T05:46:03.694Z,13.72
2022-09-30T05:48:37.375Z,13.69
2022-09-30T05:51:11.306Z,13.64
2022-09-30T05:53:45.127Z,13.63
2022-09-30T05:56:18.670Z,13.74
2022-09-30T05:58:52.472Z,13.79
2022-09-30T06:01:26.973Z,13.69
2022-09-30T06:04:00.933Z,13.76
2022-09-30T06:06:34.132Z,13.70
2022-09-30T06:09:07.829Z,13.78
2022-09-30T06:11:42.836Z,13.74
2022-09-30T06:14:19.119Z,13.57
2022-09-30T06:16:54.371Z,13.77
2022-09-30T06:19:28.178Z,13.51
2022-09-30T06:22:01.394Z,13.72
2022-09-30T06:24:35.127Z,13.98
2022-09-30T06:27:08.014Z,13.97
2022-09-30T06:29:40.845Z,13.82
2022-09-30T06:32:15.058Z,13.67
2022-09-30T06:34:48.199Z,13.86
2022-09-30T06:37:21.095Z,13.82
2022-09-30T06:39:53.904Z,13.81
2022-09-30T06:42:26.886Z,13.73
2022-09-30T06:44:59.795Z,13.91
2022-09-30T06:47:34.369Z,13.71
2022-09-30T06:50:11.882Z,13.85
2022-09-30T06:52:48.499Z,13.79
2022-09-30T06:55:24.346Z,13.74
2022-09-30T06:57:58.046Z,13.76
2022-09-30T07:00:31.149Z,13.91
2022-09-30T07:03:09.705Z,13.76
2022-09-30T07:05:42.499Z,13.75
2022-09-30T07:08:15.856Z,13.89
2022-09-30T07:10:48.741Z,13.84
2022-09-30T07:13:21.539Z,13.73
2022-09-30T07:15:56.562Z,13.88
2022-09-30T07:18:30.760Z,14.02
2022-09-30T07:21:03.633Z,14.11
2022-09-30T07:23:37.248Z,14.03
2022-09-30T07:26:10.835Z,14.04
2022-09-30T07:28:45.355Z,13.97
2022-09-30T07:31:32.370Z,13.79
2022-09-30T07:34:08.685Z,14.02
2022-09-30T07:36:42.899Z,14.01
2022-09-30T07:39:16.761Z,14.05
2022-09-30T07:41:50.662Z,14.13
2022-09-30T07:44:26.246Z,14.06
2022-09-30T07:47:02.778Z,13.96
2022-09-30T07:49:38.439Z,13.96
2022-09-30T07:52:13.871Z,14.18
2022-09-30T07:54:50.541Z,13.89
2022-09-30T07:57:23.803Z,14.06
2022-09-30T07:59:56.718Z,14.28
2022-09-30T08:02:29.787Z,14.33
2022-09-30T08:05:04.168Z,14.06
2022-09-30T08:07:37.122Z,14.11
2022-09-30T08:10:11.009Z,14.20
2022-09-30T08:12:44.035Z,14.19
2022-09-30T08:15:17.199Z,13.92
2022-09-30T08:17:50.091Z,13.92
2022-09-30T08:20:24.467Z,14.34
2022-09-30T08:22:58.228Z,14.29
2022-09-30T08:25:31.205Z,14.37
2022-09-30T08:28:04.278Z,14.19
2022-09-30T08:30:37.823Z,14.42
2022-09-30T08:33:11.807Z,14.47
2022-09-30T08:35:46.114Z,14.49
2022-09-30T08:38:20.171Z,14.64
2022-09-30T08:41:03.401Z,14.30
2022-09-30T08:43:46.883Z,14.57
2022-09-30T08:46:36.447Z,14.56
2022-09-30T08:49:31.557Z,14.47
2022-09-30T08:52:19.961Z,14.46
2022-09-30T08:55:03.659Z,14.72
2022-09-30T08:57:43.862Z,14.63
2022-09-30T09:00:22.585Z,14.84
2022-09-30T09:02:58.448Z,14.94
2022-09-30T09:05:42.616Z,14.70
2022-09-30T09:08:27.542Z,15.08
2022-09-30T09:11:09.080Z,15.08
2022-09-30T09:13:52.234Z,15.30
2022-09-30T09:16:33.656Z,15.47
2022-09-30T09:19:11.304Z,15.40
2022-09-30T09:21:54.668Z,15.40
2022-09-30T09:24:31.377Z,15.05
2022-09-30T09:27:20.845Z,15.23
2022-09-30T09:30:05.796Z,15.31
2022-09-30T09:32:38.896Z,15.53
2022-09-30T09:35:16.749Z,15.43
2022-09-30T09:38:18.770Z,15.38
2022-09-30T09:41:02.306Z,15.25
2022-09-30T09:43:48.365Z,15.28
2022-09-30T09:46:27.676Z,15.46
2022-09-30T09:49:41.700Z,15.58
2022-09-30T09:53:03.178Z,15.67
2022-09-30T09:55:37.748Z,15.68
2022-09-30T09:58:14.070Z,15.71
2022-09-30T10:01:12.885Z,15.99
2022-09-30T10:03:48.389Z,15.51
2022-09-30T10:06:21.341Z,15.73
2022-09-30T10:08:55.820Z,15.84
2022-09-30T10:11:31.055Z,15.86
2022-09-30T10:14:05.289Z,16.01
2022-09-30T10:16:39.224Z,15.63
2022-09-30T10:19:21.229Z,15.76
2022-09-30T10:22:21.636Z,15.93
2022-09-30T10:25:12.375Z,16.26
2022-09-30T10:27:54.299Z,16.03
2022-09-30T10:30:49.460Z,16.15
2022-09-30T10:33:27.830Z,16.06
2022-09-30T10:36:09.420Z,15.93
2022-09-30T10:39:06.865Z,15.70
2022-09-30T10:41:40.427Z,15.85
2022-09-30T10:44:17.733Z,15.80
2022-09-30T10:46:54.429Z,15.74
2022-09-30T10:49:32.287Z,15.88
2022-09-30T10:52:05.599Z,15.61
2022-09-30T10:54:55.316Z,15.58
2022-09-30T10:57:30.958Z,15.66
2022-09-30T11:00:08.937Z,15.50
2022-09-30T11:02:49.440Z,15.34
2022-09-30T11:05:28.790Z,15.48
2022-09-30T11:08:10.401Z,15.72
2022-09-30T11:10:47.572Z,15.60
2022-09-30T11:13:26.039Z,15.38
2022-09-30T11:16:06.511Z,15.22
2022-09-30T11:18:46.216Z,14.84
2022-09-30T11:21:24.057Z,14.86
2022-09-30T11:24:03.556Z,15.03
2022-09-30T11:26:51.070Z,14.74
2022-09-30T11:29:52.290Z,14.93
2022-09-30T11:32:42.027Z,14.86
2022-09-30T11:35:30.685Z,14.74
2022-09-30T11:38:14.333Z,14.82
2022-09-30T11:40:57.938Z,15.09
2022-09-30T11:43:42.820Z,14.94
2022-09-30T11:46:41.535Z,15.07
2022-09-30T11:49:28.297Z,14.85
2022-09-30T11:52:11.122Z,15.00
2022-09-30T11:55:20.704Z,14.72
2022-09-30T11:58:05.297Z,14.64
2022-09-30T12:00:54.215Z,15.25
2022-09-30T12:03:34.146Z,15.06
2022-09-30T12:06:17.792Z,15.21
2022-09-30T12:08:58.073Z,15.11
2022-09-30T12:11:39.182Z,15.17
2022-09-30T12:14:18.935Z,14.97
2022-09-30T12:16:52.087Z,14.86
2022-09-30T12:19:30.341Z,14.97
2022-09-30T12:22:11.173Z,15.16
2022-09-30T12:24:46.779Z,15.06
2022-09-30T12:27:26.756Z,15.10
2022-09-30T12:30:18.531Z,15.03
2022-09-30T12:33:30.310Z,15.17
2022-09-30T12:36:42.390Z,14.68
2022-09-30T12:39:58.385Z,14.94
2022-09-30T12:42:51.431Z,15.25
2022-09-30T12:45:55.081Z,15.23
2022-09-30T12:48:31.380Z,15.26
2022-09-30T12:51:05.382Z,15.26
2022-09-30T12:53:40.638Z,15.06
2022-09-30T12:56:17.307Z,15.01
2022-09-30T12:58:53.858Z,14.74
2022-09-30T13:01:30.844Z,14.99
2022-09-30T13:04:33.322Z,14.95
2022-09-30T13:07:22.013Z,15.20
2022-09-30T13:10:01.820Z,15.07
2022-09-30T13:12:45.755Z,14.91
2022-09-30T13:15:41.093Z,14.64
2022-09-30T13:18:51.961Z,15.22
2022-09-30T13:21:26.162Z,14.90
2022-09-30T13:24:00.757Z,15.10
2022-09-30T13:26:37.102Z,14.82
2022-09-30T13:29:50.290Z,15.10
2022-09-30T13:32:38.295Z,14.84
2022-09-30T13:35:33.531Z,14.64
2022-09-30T13:38:18.842Z,14.73
2022-09-30T13:41:03.672Z,14.88
2022-09-30T13:43:44.240Z,14.90
2022-09-30T13:46:36.604Z,14.63
2022-09-30T13:49:16.791Z,14.75
2022-09-30T13:51:50.792Z,14.87
2022-09-30T13:54:32.064Z,15.08
2022-09-30T13:57:08.615Z,14.61
2022-09-30T14:00:00.735Z,14.76
2022-09-30T14:03:06.304Z,14.50
2022-09-30T14:05:56.710Z,14.65
2022-09-30T14:08:50.445Z,14.56
2022-09-30T14:11:42.328Z,14.57
2022-09-30T14:14:36.861Z,14.66
2022-09-30T14:17:30.057Z,14.66
2022-09-30T14:20:20.249Z,14.51
2022-09-30T14:22:55.451Z,14.66
2022-09-30T14:25:39.161Z,14.63
2022-09-30T14:28:17.251Z,14.83
2022-09-30T14:31:04.010Z,14.86
2022-09-30T14:33:39.785Z,14.87
2022-09-30T14:36:17.247Z,14.52
2022-09-30T14:38:55.001Z,14.65
2022-09-30T14:41:30.047Z,14.97
2022-09-30T14:44:05.210Z,14.85
2022-09-30T14:46:42.725Z,14.67
2022-09-30T14:49:18.719Z,14.87
2022-09-30T14:51:52.543Z,15.16
2022-09-30T14:54:29.465Z,14.72
2022-09-30T14:57:04.930Z,14.91
2022-09-30T14:59:42.066Z,14.62
2022-09-30T15:02:20.361Z,14.85
2022-09-30T15:05:01.375Z,14.75
2022-09-30T15:07:34.588Z,14.68
2022-09-30T15:10:19.125Z,14.78
2022-09-30T15:12:55.174Z,14.86
2022-09-30T15:15:35.585Z,15.12
2022-09-30T15:18:32.769Z,15.06
2022-09-30T15:21:10.993Z,14.98
2022-09-30T15:23:47.409Z,15.23
2022-09-30T15:26:24.234Z,14.88
2022-09-30T15:28:57.135Z,14.96
2022-09-30T15:31:31.935Z,15.09
2022-09-30T15:34:08.785Z,15.12
2022-09-30T15:36:41.686Z,15.02
2022-09-30T15:39:24.368Z,15.30
2022-09-30T15:41:58.819Z,15.27
2022-09-30T15:44:40.339Z,15.37
2022-09-30T15:47:13.932Z,15.32
2022-09-30T15:49:49.831Z,15.39
2022-09-30T15:52:30.561Z,15.58
2022-09-30T15:55:42.226Z,15.21
2022-09-30T15:58:38.233Z,15.28
2022-09-30T16:01:15.749Z,15.18
2022-09-30T16:03:55.384Z,15.53
2022-09-30T16:06:35.813Z,15.32
2022-09-30T16:09:22.223Z,15.41
2022-09-30T16:12:05.600Z,15.60
2022-09-30T16:14:49.102Z,15.70
2022-09-30T16:17:26.203Z,15.63
2022-09-30T16:20:03.287Z,15.54
2022-09-30T16:22:52.343Z,15.45
2022-09-30T16:25:28.433Z,15.63
2022-09-30T16:28:05.230Z,15.56
2022-09-30T16:30:44.775Z,15.15
2022-09-30T16:33:19.331Z,15.49
2022-09-30T16:35:52.258Z,15.59
2022-09-30T16:38:25.870Z,15.86
2022-09-30T16:41:01.022Z,16.17
2022-09-30T16:43:34.978Z,15.93
2022-09-30T16:46:10.786Z,16.15
2022-09-30T16:48:43.950Z,15.81
2022-09-30T16:51:18.200Z,16.03
2022-09-30T16:53:51.091Z,16.44
2022-09-30T16:56:26.852Z,16.39
2022-09-30T16:58:59.740Z,16.29
2022-09-30T17:01:33.933Z,16.24
2022-09-30T17:04:07.569Z,16.29
2022-09-30T17:06:41.098Z,16.41
2022-09-30T17:09:14.773Z,16.58
2022-09-30T17:11:50.122Z,16.64
2022-09-30T17:14:24.683Z,16.73
2022-09-30T17:16:59.568Z,16.76
2022-09-30T17:19:35.777Z,16.74
2022-09-30T17:22:09.357Z,16.66
2022-09-30T17:24:43.138Z,16.65
2022-09-30T17:27:15.998Z,16.75
2022-09-30T17:29:50.038Z,16.79
2022-09-30T17:32:24.946Z,16.80
2022-09-30T17:34:57.887Z,16.70
2022-09-30T17:37:31.343Z,16.73
2022-09-30T17:40:26.462Z,16.78
2022-09-30T17:43:07.283Z,16.80
2022-09-30T17:45:43.311Z,16.84
2022-09-30T17:48:18.893Z,16.87
2022-09-30T17:50:56.642Z,16.78
2022-09-30T17:53:31.115Z,16.82
2022-09-30T17:56:10.630Z,16.95
2022-09-30T17:58:45.624Z,16.99
2022-09-30T18:01:22.276Z,16.93
2022-09-30T18:04:01.882Z,16.94
2022-09-30T18:06:35.854Z,16.90
2022-09-30T18:09:09.539Z,16.86
2022-09-30T18:11:44.187Z,16.82
2022-09-30T18:14:18.263Z,16.78
2022-09-30T18:16:51.982Z,16.73
2022-09-30T18:19:27.221Z,16.57
2022-09-30T18:22:01.173Z,16.50
2022-09-30T18:24:52.171Z,16.53
2022-09-30T18:27:26.425Z,16.65
2022-09-30T18:29:59.314Z,16.51
2022-09-30T18:32:32.781Z,16.58
2022-09-30T18:35:12.376Z,16.47
2022-09-30T18:37:47.719Z,16.46
2022-09-30T18:40:22.200Z,16.45
2022-09-30T18:42:58.550Z,16.45
2022-09-30T18:45:33.421Z,16.46
2022-09-30T18:48:07.945Z,16.43
2022-09-30T18:50:42.779Z,16.49
2022-09-30T18:53:16.081Z,16.46
2022-09-30T18:55:49.187Z,16.40
2022-09-30T18:58:21.966Z,16.44
2022-09-30T19:00:55.296Z,16.53
2022-09-30T19:03:30.262Z,16.46
2022-09-30T19:06:11.619Z,16.53
2022-09-30T19:08:45.215Z,16.59
2022-09-30T19:11:18.527Z,16.58
2022-09-30T19:13:56.788Z,16.57
2022-09-30T19:16:35.436Z,16.49
2022-09-30T19:19:11.633Z,16.56
2022-09-30T19:21:46.132Z,16.48
2022-09-30T19:24:19.832Z,16.42
2022-09-30T19:26:54.736Z,16.41
2022-09-30T19:29:28.367Z,16.49
2022-09-30T19:32:01.327Z,16.51
2022-09-30T19:34:34.960Z,16.53
2022-09-30T19:37:20.896Z,16.52
2022-09-30T19:39:57.486Z,16.50
2022-09-30T19:42:32.734Z,16.41
2022-09-30T19:45:08.496Z,16.33
2022-09-30T19:47:42.192Z,16.26
2022-09-30T19:50:15.679Z,16.20
2022-09-30T19:52:56.982Z,16.19
2022-09-30T19:55:33.661Z,16.03
2022-09-30T19:58:09.716Z,15.93
2022-09-30T20:00:43.561Z,15.94
2022-09-30T20:03:17.605Z,15.94
2022-09-30T20:05:51.269Z,15.92
2022-09-30T20:08:26.248Z,15.90
2022-09-30T20:11:04.124Z,15.89
2022-09-30T20:13:37.283Z,15.95
2022-09-30T20:16:11.533Z,16.00
2022-09-30T20:18:45.857Z,16.02
2022-09-30T20:21:19.489Z,16.00
2022-09-30T20:23:55.514Z,15.90
2022-09-30T20:26:28.544Z,15.93
2022-09-30T20:29:02.240Z,15.88
2022-09-30T20:31:36.616Z,15.84
2022-09-30T20:34:13.757Z,15.77
2022-09-30T20:36:48.018Z,15.72
2022-09-30T20:39:23.682Z,15.72
2022-09-30T20:41:58.484Z,15.79
2022-09-30T20:44:33.381Z,15.57
2022-09-30T20:47:07.244Z,15.60
2022-09-30T20:49:40.937Z,15.64
2022-09-30T20:52:14.914Z,15.65
2022-09-30T20:54:49.543Z,15.71
2022-09-30T20:57:22.512Z,15.72
2022-09-30T20:59:56.027Z,15.72
2022-09-30T21:02:30.239Z,15.77
2022-09-30T21:05:03.889Z,15.76
2022-09-30T21:07:37.789Z,15.74
2022-09-30T21:10:12.935Z,15.75
2022-09-30T21:12:46.778Z,15.65
2022-09-30T21:15:20.269Z,15.64
2022-09-30T21:17:55.525Z,15.62
2022-09-30T21:20:28.396Z,15.58
2022-09-30T21:23:03.698Z,15.59
2022-09-30T21:25:38.623Z,15.55
2022-09-30T21:28:12.270Z,15.53
2022-09-30T21:30:46.225Z,15.52
2022-09-30T21:33:20.683Z,15.57
2022-09-30T21:36:01.541Z,15.57
2022-09-30T21:38:35.495Z,15.65
2022-09-30T21:41:10.513Z,15.71
2022-09-30T21:43:44.546Z,15.77
2022-09-30T21:46:18.798Z,15.69
2022-09-30T21:48:54.072Z,15.67
2022-09-30T21:51:30.471Z,15.72
2022-09-30T21:54:03.849Z,15.70
2022-09-30T21:56:38.481Z,15.70
2022-09-30T21:59:12.091Z,15.66
2022-09-30T22:01:45.337Z,15.69
2022-09-30T22:04:20.006Z,15.69
2022-09-30T22:06:52.883Z,15.61
2022-09-30T22:09:26.876Z,15.54
2022-09-30T22:12:09.077Z,15.47
2022-09-30T22:14:43.058Z,15.52
2022-09-30T22:17:16.636Z,15.36
2022-09-30T22:19:50.321Z,15.40
2022-09-30T22:22:24.994Z,15.40
2022-09-30T22:24:58.607Z,15.23
2022-09-30T22:27:34.290Z,15.25
2022-09-30T22:30:09.385Z,15.12
2022-09-30T22:32:42.953Z,15.16
2022-09-30T22:35:34.071Z,15.15
2022-09-30T22:38:16.793Z,15.02
2022-09-30T22:40:50.445Z,15.15
2022-09-30T22:43:25.750Z,15.22
2022-09-30T22:46:03.696Z,15.21
2022-09-30T22:48:37.499Z,15.29
2022-09-30T22:51:16.325Z,15.26
2022-09-30T22:53:49.828Z,15.22
2022-09-30T22:56:23.727Z,15.17
2022-09-30T22:58:59.678Z,15.23
2022-09-30T23:01:33.567Z,15.20
2022-09-30T23:04:08.291Z,15.15
2022-09-30T23:06:41.925Z,15.16
2022-09-30T23:09:15.783Z,15.20
2022-09-30T23:11:51.147Z,15.17
2022-09-30T23:14:26.417Z,15.17
2022-09-30T23:16:59.327Z,14.97
2022-09-30T23:19:32.840Z,15.12
2022-09-30T23:22:07.290Z,15.10
2022-09-30T23:24:41.244Z,15.17
2022-09-30T23:27:14.962Z,15.07
2022-09-30T23:29:51.160Z,15.17
2022-09-30T23:32:25.331Z,15.09
2022-09-30T23:34:58.847Z,15.10
2022-09-30T23:37:32.503Z,15.11
2022-09-30T23:40:06.763Z,15.23
2022-09-30T23:42:40.446Z,15.20
2022-09-30T23:45:15.546Z,15.20
2022-09-30T23:47:49.977Z,15.05
2022-09-30T23:50:25.558Z,15.04
2022-09-30T23:53:00.253Z,15.12
2022-09-30T23:55:33.881Z,15.12
2022-09-30T23:58:08.841Z,15.06
